Time;durP1;ratioP1;P1;durP2;ratioP2;P2;SDS_P1;SDS_P2;PMS_P1;PMS_P2;Temp;Humidity;BMP_temperature;BMP_pressure;BME280_temperature;BME280_humidity;BME280_pressure;Samples;Min_cycle;Max_cycle;Signal;HPM_P1;HPM_P2
2023/03/11 00:02:05;;;;;;;4.53;3.60;;;;;;;4.92;78.29;99816.66;6225299;28;20224;-72
2023/03/11 00:05:28;;;;;;;5.57;4.07;;;;;;;5.00;78.33;99822.22;6236611;28;20232;-70
2023/03/11 00:08:49;;;;;;;4.80;4.27;;;;;;;5.21;78.08;99829.28;6217963;28;22166;-70
2023/03/11 00:12:12;;;;;;;7.07;4.97;;;;;;;5.03;77.99;99836.16;6206433;28;20851;-70
2023/03/11 00:15:35;;;;;;;8.80;5.40;;;;;;;5.35;77.02;99852.16;6230969;28;20232;-70
2023/03/11 00:18:56;;;;;;;5.50;4.90;;;;;;;5.28;76.90;99859.84;6235942;28;20462;-70
2023/03/11 00:22:17;;;;;;;7.20;6.60;;;;;;;5.11;77.96;99870.25;6225988;28;20228;-70
2023/03/11 00:25:39;;;;;;;5.87;4.33;;;;;;;4.97;78.48;99867.84;6231507;28;20260;-70
2023/03/11 00:29:01;;;;;;;5.67;4.83;;;;;;;5.36;76.85;99875.25;6226964;28;20786;-71
2023/03/11 00:32:22;;;;;;;7.03;6.33;;;;;;;4.99;77.92;99881.91;6233653;28;20241;-71
2023/03/11 00:35:44;;;;;;;5.37;4.80;;;;;;;4.98;77.82;99883.75;6240461;28;20227;-70
2023/03/11 00:39:06;;;;;;;9.17;6.13;;;;;;;4.82;78.02;99884.16;6237638;28;20220;-70
2023/03/11 00:42:27;;;;;;;7.50;5.13;;;;;;;4.62;78.08;99900.06;6207117;28;20235;-70
2023/03/11 00:45:49;;;;;;;7.03;6.30;;;;;;;5.09;77.83;99901.59;6234622;28;20603;-70
2023/03/11 00:49:10;;;;;;;19.43;7.93;;;;;;;4.96;77.23;99912.41;6242897;28;20242;-71
2023/03/11 00:52:31;;;;;;;6.20;5.23;;;;;;;4.84;77.35;99916.06;6227452;28;20323;-70
2023/03/11 00:55:52;;;;;;;5.80;5.10;;;;;;;5.04;77.02;99923.31;6239378;28;20236;-70
2023/03/11 00:59:13;;;;;;;8.23;5.60;;;;;;;4.99;77.32;99935.31;6219255;28;20224;-70
2023/03/11 01:02:36;;;;;;;9.10;6.40;;;;;;;5.02;76.83;99943.97;6228777;28;20251;-71
2023/03/11 01:05:57;;;;;;;8.73;5.40;;;;;;;4.78;77.88;99949.44;6245955;28;20220;-70
2023/03/11 01:09:18;;;;;;;7.63;6.00;;;;;;;5.10;76.73;99946.84;6239345;28;20243;-71
2023/03/11 01:12:40;;;;;;;7.97;5.50;;;;;;;4.99;77.21;99951.34;6227758;28;20223;-70
2023/03/11 01:16:01;;;;;;;7.30;5.40;;;;;;;4.85;77.32;99957.81;6242955;28;20221;-70
2023/03/11 01:19:24;;;;;;;8.80;6.47;;;;;;;4.96;77.40;99960.47;6224526;28;20226;-69
2023/03/11 01:22:45;;;;;;;6.00;5.43;;;;;;;5.12;76.80;99962.75;6216631;28;20231;-70
2023/03/11 01:26:06;;;;;;;7.03;5.80;;;;;;;5.03;76.89;99975.00;6229414;28;20232;-71
2023/03/11 01:29:27;;;;;;;6.07;5.47;;;;;;;5.20;76.22;99979.84;6208795;28;20232;-70
2023/03/11 01:32:49;;;;;;;9.87;7.07;;;;;;;4.85;77.37;99984.50;6225744;28;20236;-69
2023/03/11 01:36:11;;;;;;;7.13;6.50;;;;;;;4.99;76.27;99989.59;6232476;28;20228;-71
2023/03/11 01:39:32;;;;;;;7.50;6.27;;;;;;;4.89;76.45;99993.97;6206878;28;20602;-70
2023/03/11 01:42:53;;;;;;;7.70;5.47;;;;;;;5.14;75.56;100001.72;6223101;28;20600;-71
2023/03/11 01:46:17;;;;;;;7.10;6.00;;;;;;;4.95;76.15;100014.84;6221195;28;20698;-70
2023/03/11 01:49:40;;;;;;;8.23;5.53;;;;;;;4.95;76.79;100004.16;6219654;28;20240;-71
2023/03/11 01:53:05;;;;;;;6.40;5.47;;;;;;;5.24;75.25;100016.03;6228836;28;20239;-70
2023/03/11 01:56:26;;;;;;;11.73;6.03;;;;;;;5.09;76.11;100011.09;6227954;28;20228;-70
2023/03/11 01:59:51;;;;;;;10.40;5.60;;;;;;;4.98;75.16;100011.94;6220670;28;20487;-70
2023/03/11 02:03:17;;;;;;;7.10;5.10;;;;;;;4.83;75.26;100022.03;6234753;28;20577;-71
2023/03/11 02:06:38;;;;;;;7.23;5.23;;;;;;;4.77;75.30;100014.50;6223907;28;20231;-70
2023/03/11 02:10:01;;;;;;;6.30;5.27;;;;;;;4.88;75.68;100030.50;6234520;28;20500;-70
2023/03/11 02:13:24;;;;;;;5.17;4.50;;;;;;;4.98;75.03;100030.63;6216699;28;20240;-70
2023/03/11 02:16:45;;;;;;;6.17;5.63;;;;;;;5.04;74.66;100037.31;6216887;28;20224;-71
2023/03/11 02:20:16;;;;;;;4.93;4.50;;;;;;;5.08;74.83;100055.63;6231724;28;20344;-71
2023/03/11 02:23:47;;;;;;;5.57;5.00;;;;;;;5.22;74.47;100063.41;6212272;28;20737;-69
2023/03/11 02:27:12;;;;;;;5.63;4.93;;;;;;;4.94;74.35;100068.38;6240803;28;20227;-70
2023/03/11 02:30:34;;;;;;;4.73;3.90;;;;;;;4.80;75.06;100078.31;6216058;28;20261;-71
2023/03/11 02:33:59;;;;;;;8.50;5.57;;;;;;;4.75;74.88;100080.50;6220072;28;20244;-71
2023/03/11 02:37:20;;;;;;;6.37;4.50;;;;;;;5.06;74.57;100094.97;6216492;28;20232;-70
2023/03/11 02:40:52;;;;;;;7.57;5.30;;;;;;;4.57;75.78;100099.72;6245956;28;20286;-70
2023/03/11 02:44:17;;;;;;;6.47;5.07;;;;;;;4.77;75.25;100104.41;6235359;28;20227;-70
2023/03/11 02:47:40;;;;;;;6.67;4.80;;;;;;;4.68;74.70;100113.97;6231855;28;20543;-72
2023/03/11 02:51:03;;;;;;;7.50;4.07;;;;;;;4.52;75.46;100116.13;6229890;28;20224;-71
2023/03/11 02:54:24;;;;;;;7.33;5.00;;;;;;;4.52;75.68;100123.28;6220116;28;20232;-71
2023/03/11 02:57:47;;;;;;;5.40;4.90;;;;;;;4.49;75.07;100134.16;6225441;28;20239;-71
2023/03/11 03:01:10;;;;;;;6.77;5.10;;;;;;;4.33;76.11;100138.97;6245032;28;20627;-71
2023/03/11 03:04:32;;;;;;;7.03;4.10;;;;;;;4.53;74.72;100140.97;6213075;28;20232;-71
2023/03/11 03:07:54;;;;;;;5.23;4.67;;;;;;;4.56;74.76;100140.75;6237699;28;20231;-71
2023/03/11 03:11:15;;;;;;;5.97;4.87;;;;;;;4.75;74.67;100143.72;6237385;28;20221;-70
2023/03/11 03:14:36;;;;;;;4.83;4.30;;;;;;;4.67;73.80;100144.28;6230169;28;20216;-70
2023/03/11 03:17:59;;;;;;;3.93;3.63;;;;;;;4.44;74.54;100152.34;6209653;28;20233;-71
2023/03/11 03:21:20;;;;;;;5.93;5.33;;;;;;;4.49;74.87;100164.38;6216334;28;20233;-70
2023/03/11 03:24:41;;;;;;;5.10;4.07;;;;;;;4.64;74.29;100171.22;6216296;28;20233;-70
2023/03/11 03:28:02;;;;;;;5.17;3.70;;;;;;;4.29;74.95;100182.84;6223873;28;20224;-70
2023/03/11 03:31:26;;;;;;;5.13;4.37;;;;;;;4.43;74.64;100191.53;6221618;28;20232;-70
2023/03/11 03:34:48;;;;;;;4.97;4.07;;;;;;;4.37;74.64;100191.13;6241535;28;20342;-71
2023/03/11 03:38:09;;;;;;;3.87;3.47;;;;;;;4.28;74.32;100205.13;6215280;28;20231;-70
2023/03/11 03:41:32;;;;;;;4.10;3.77;;;;;;;4.69;73.38;100206.41;6229351;28;20228;-69
2023/03/11 03:44:53;;;;;;;5.23;4.57;;;;;;;4.35;74.31;100206.38;6229562;28;20232;-71
2023/03/11 03:48:14;;;;;;;6.07;4.27;;;;;;;4.61;73.43;100210.66;6217701;28;20223;-70
2023/03/11 03:51:40;;;;;;;4.80;3.60;;;;;;;4.65;72.65;100222.81;6222279;28;20233;-71
2023/03/11 03:55:07;;;;;;;5.10;4.03;;;;;;;4.73;72.30;100231.94;6212469;28;20223;-71
2023/03/11 03:58:28;;;;;;;4.70;3.93;;;;;;;4.49;73.33;100239.09;6217936;28;20232;-72
2023/03/11 04:01:49;;;;;;;7.60;5.17;;;;;;;4.59;72.68;100247.28;6236082;28;20236;-70
2023/03/11 04:05:11;;;;;;;6.43;5.27;;;;;;;5.10;72.10;100239.81;6214888;28;20266;-70
2023/03/11 04:08:35;;;;;;;5.27;4.13;;;;;;;4.68;73.12;100250.09;6223308;28;20759;-71
2023/03/11 04:11:56;;;;;;;4.53;4.13;;;;;;;4.54;72.72;100247.63;6223250;28;20229;-71
2023/03/11 04:15:17;;;;;;;4.90;3.70;;;;;;;4.64;73.27;100264.66;6249048;28;20621;-70
2023/03/11 04:18:39;;;;;;;6.50;4.00;;;;;;;4.40;73.76;100258.44;6228281;28;20256;-70
2023/03/11 04:22:01;;;;;;;5.10;4.60;;;;;;;4.68;72.90;100258.13;6222435;28;20224;-71
2023/03/11 04:25:24;;;;;;;4.70;4.17;;;;;;;4.76;73.25;100263.72;6221424;28;21054;-70
2023/03/11 04:28:45;;;;;;;5.30;4.47;;;;;;;4.93;72.17;100269.63;6220226;28;20312;-70
2023/03/11 04:32:07;;;;;;;7.47;5.40;;;;;;;4.81;72.67;100260.72;6237786;28;20233;-71
2023/03/11 04:35:28;;;;;;;8.40;4.30;;;;;;;4.65;72.38;100263.66;6217597;28;20236;-71
2023/03/11 04:38:49;;;;;;;4.37;3.83;;;;;;;4.88;72.63;100264.66;6224387;28;20237;-70
2023/03/11 04:42:13;;;;;;;4.03;3.63;;;;;;;4.65;72.87;100263.66;6247776;28;20236;-71
2023/03/11 04:45:38;;;;;;;5.03;3.87;;;;;;;4.49;73.10;100276.44;6239333;28;20236;-70
2023/03/11 04:48:59;;;;;;;5.73;3.43;;;;;;;4.48;72.95;100279.25;6251199;28;20237;-70
2023/03/11 04:52:20;;;;;;;4.53;3.97;;;;;;;4.20;73.74;100285.72;6239243;28;20229;-70
2023/03/11 04:55:41;;;;;;;5.33;4.73;;;;;;;4.00;74.58;100289.81;6237241;28;20228;-71
2023/03/11 04:59:03;;;;;;;5.87;3.80;;;;;;;4.00;75.05;100294.31;6240227;28;20269;-70
2023/03/11 05:02:27;;;;;;;6.23;5.13;;;;;;;4.28;74.06;100302.03;6218926;28;20236;-71
2023/03/11 05:05:55;;;;;;;5.57;4.20;;;;;;;4.28;74.27;100304.69;6235491;28;20227;-70
2023/03/11 05:09:16;;;;;;;6.30;4.47;;;;;;;4.23;73.97;100316.66;6217859;28;20609;-71
2023/03/11 05:12:38;;;;;;;4.30;3.33;;;;;;;4.31;73.37;100316.97;6230485;28;20248;-71
2023/03/11 05:16:01;;;;;;;6.63;3.53;;;;;;;4.09;74.45;100324.81;6235259;28;20315;-70
2023/03/11 05:19:33;;;;;;;5.53;4.33;;;;;;;3.80;75.17;100334.81;6238357;28;20225;-71
2023/03/11 05:22:58;;;;;;;5.30;4.80;;;;;;;3.74;75.17;100349.44;6239637;28;20255;-71
2023/03/11 05:26:20;;;;;;;4.47;3.80;;;;;;;3.76;75.81;100350.19;6237509;28;20280;-71
2023/03/11 05:29:42;;;;;;;5.73;4.67;;;;;;;3.78;75.31;100361.59;6237000;28;20228;-71
2023/03/11 05:33:06;;;;;;;4.77;3.93;;;;;;;3.66;75.96;100362.44;6235199;28;20822;-70
2023/03/11 05:36:27;;;;;;;4.53;3.93;;;;;;;3.54;76.26;100373.09;6240122;28;20306;-71
2023/03/11 05:39:48;;;;;;;4.60;3.57;;;;;;;3.87;75.00;100374.31;6220848;28;20224;-69
2023/03/11 05:43:10;;;;;;;4.80;3.27;;;;;;;3.53;76.41;100379.34;6235801;28;20235;-70
2023/03/11 05:46:34;;;;;;;5.47;4.00;;;;;;;3.60;76.05;100391.31;6240734;28;20229;-70
2023/03/11 05:49:59;;;;;;;6.67;4.33;;;;;;;3.68;75.48;100388.97;6223183;28;20228;-70
2023/03/11 05:53:20;;;;;;;3.83;3.50;;;;;;;3.55;75.51;100402.28;6240371;28;20541;-70
2023/03/11 05:56:41;;;;;;;4.93;4.43;;;;;;;3.74;74.75;100396.56;6238155;28;20256;-71
2023/03/11 06:00:06;;;;;;;4.13;3.33;;;;;;;3.61;75.10;100404.53;6235976;28;20233;-71
2023/03/11 06:03:34;;;;;;;5.10;4.17;;;;;;;3.34;75.69;100410.88;6230901;28;20236;-71
2023/03/11 06:06:57;;;;;;;4.30;3.67;;;;;;;3.59;74.68;100414.44;6233564;28;20312;-71
2023/03/11 06:10:21;;;;;;;5.30;4.27;;;;;;;3.85;73.85;100424.22;6215713;28;20220;-71
2023/03/11 06:13:41;;;;;;;4.90;4.40;;;;;;;3.67;74.18;100420.09;6217336;28;20610;-71
2023/03/11 06:17:04;;;;;;;4.20;3.37;;;;;;;3.61;74.33;100428.50;6213647;28;20524;-70
2023/03/11 06:20:26;;;;;;;4.47;3.33;;;;;;;3.78;74.07;100425.56;6227990;28;20239;-70
2023/03/11 06:23:49;;;;;;;3.27;2.90;;;;;;;3.78;72.47;100432.72;6232263;28;20264;-71
2023/03/11 06:27:10;;;;;;;4.93;4.43;;;;;;;3.89;72.55;100441.69;6213623;28;20354;-71
2023/03/11 06:30:33;;;;;;;4.03;3.73;;;;;;;3.82;72.57;100448.38;6241400;28;20228;-70
2023/03/11 06:34:02;;;;;;;3.67;3.10;;;;;;;4.12;71.81;100450.78;6219891;28;20294;-70
2023/03/11 06:37:24;;;;;;;6.33;4.50;;;;;;;4.09;71.75;100453.63;6226107;28;20323;-70
2023/03/11 06:40:46;;;;;;;6.43;4.17;;;;;;;4.16;71.07;100460.28;6232832;28;20315;-71
2023/03/11 06:44:09;;;;;;;4.53;4.13;;;;;;;3.96;72.74;100471.47;6233517;28;20231;-70
2023/03/11 06:47:31;;;;;;;4.43;3.77;;;;;;;4.12;71.92;100476.59;6229651;28;20311;-70
2023/03/11 06:50:55;;;;;;;4.90;3.23;;;;;;;4.01;71.87;100479.97;6236593;28;20227;-71
2023/03/11 06:54:16;;;;;;;4.63;4.00;;;;;;;4.23;71.46;100485.56;6221980;28;20323;-70
2023/03/11 06:57:39;;;;;;;3.33;3.03;;;;;;;4.24;71.22;100497.94;6235465;28;20247;-69
2023/03/11 07:01:05;;;;;;;5.07;4.20;;;;;;;3.87;71.95;100499.59;6233188;28;20216;-70
2023/03/11 07:04:26;;;;;;;3.97;3.43;;;;;;;4.32;70.82;100497.44;6230807;28;20236;-70
2023/03/11 07:07:48;;;;;;;4.40;4.00;;;;;;;4.43;70.69;100509.06;6235976;28;20228;-70
2023/03/11 07:11:12;;;;;;;3.33;2.97;;;;;;;4.14;71.45;100510.19;6232694;28;20607;-70
2023/03/11 07:14:35;;;;;;;4.07;3.67;;;;;;;4.42;70.74;100517.16;6216419;28;20892;-70
2023/03/11 07:17:56;;;;;;;3.43;3.00;;;;;;;4.31;70.86;100523.25;6241024;28;20229;-71
2023/03/11 07:21:20;;;;;;;4.70;3.43;;;;;;;4.65;70.68;100527.09;6231519;28;20622;-70
2023/03/11 07:24:44;;;;;;;5.13;3.73;;;;;;;5.05;69.21;100533.97;6234558;28;20256;-70
2023/03/11 07:28:05;;;;;;;3.63;3.40;;;;;;;5.04;68.44;100536.75;6235510;28;20327;-70
2023/03/11 07:31:30;;;;;;;4.10;3.23;;;;;;;4.52;69.88;100532.44;6215401;28;20531;-70
2023/03/11 07:34:50;;;;;;;5.40;3.23;;;;;;;4.58;70.53;100550.69;6236784;28;20519;-70
2023/03/11 07:38:11;;;;;;;4.33;3.93;;;;;;;5.01;68.79;100547.66;6237033;28;20319;-71
2023/03/11 07:41:34;;;;;;;4.90;3.50;;;;;;;4.94;68.41;100554.41;6243801;28;20236;-70
2023/03/11 07:44:55;;;;;;;4.00;2.80;;;;;;;5.11;68.53;100560.25;6231870;28;20224;-71
2023/03/11 07:48:17;;;;;;;7.70;3.50;;;;;;;5.33;68.64;100573.81;6239988;28;20235;-71
2023/03/11 07:51:41;;;;;;;6.20;3.13;;;;;;;5.22;68.75;100576.38;6239205;28;20231;-71
2023/03/11 07:55:02;;;;;;;3.73;3.40;;;;;;;5.22;67.67;100578.19;6227328;28;21173;-70
2023/03/11 07:58:23;;;;;;;2.77;2.33;;;;;;;5.03;67.90;100589.34;6230338;28;20229;-69
2023/03/11 08:01:46;;;;;;;4.13;3.27;;;;;;;5.23;67.39;100586.13;6228976;28;20228;-70
2023/03/11 08:05:09;;;;;;;3.30;2.80;;;;;;;5.85;67.30;100592.25;6244879;28;20601;-69
2023/03/11 08:08:30;;;;;;;2.67;2.07;;;;;;;6.00;65.54;100599.16;6226491;28;20634;-70
2023/03/11 08:11:51;;;;;;;3.27;2.97;;;;;;;6.13;64.71;100607.13;6229053;28;20318;-70
2023/03/11 08:15:12;;;;;;;3.33;2.93;;;;;;;5.76;64.96;100619.66;6228431;28;20498;-70
2023/03/11 08:18:33;;;;;;;2.90;2.70;;;;;;;6.36;66.86;100625.00;6212109;28;22073;-71
2023/03/11 08:21:56;;;;;;;2.90;2.53;;;;;;;6.76;62.81;100630.84;6220454;28;20225;-70
2023/03/11 08:25:17;;;;;;;2.50;2.30;;;;;;;6.22;62.28;100633.19;6220080;28;20228;-70
2023/03/11 08:28:38;;;;;;;2.50;2.27;;;;;;;6.50;61.38;100643.53;6211742;28;20224;-71
2023/03/11 08:31:59;;;;;;;3.43;3.10;;;;;;;6.47;61.81;100641.94;6215561;28;20225;-70
2023/03/11 08:35:20;;;;;;;6.03;3.43;;;;;;;6.16;61.42;100649.69;6217256;28;20235;-70
2023/03/11 08:38:42;;;;;;;2.83;2.53;;;;;;;5.99;61.76;100647.41;6220641;28;20239;-71
2023/03/11 08:42:03;;;;;;;2.60;2.40;;;;;;;6.57;61.52;100654.66;6231296;28;20334;-71
2023/03/11 08:45:25;;;;;;;7.83;3.57;;;;;;;6.92;59.36;100659.00;6225319;28;20550;-70
2023/03/11 08:48:47;;;;;;;3.47;2.93;;;;;;;6.74;59.67;100671.13;6238392;28;20228;-71
2023/03/11 08:52:08;;;;;;;2.80;2.40;;;;;;;6.57;59.73;100670.72;6236491;28;20231;-70
2023/03/11 08:55:30;;;;;;;3.63;2.47;;;;;;;6.77;58.69;100668.22;6225318;28;20231;-72
2023/03/11 08:58:51;;;;;;;2.73;2.27;;;;;;;6.91;57.63;100676.03;6230023;28;20530;-71
2023/03/11 09:02:12;;;;;;;2.40;2.00;;;;;;;6.70;57.22;100680.38;6221978;28;20245;-71
2023/03/11 09:05:33;;;;;;;2.40;2.20;;;;;;;6.68;57.68;100684.97;6225830;28;20747;-70
2023/03/11 09:08:54;;;;;;;3.33;1.97;;;;;;;6.71;57.74;100684.75;6220481;28;20236;-70
2023/03/11 09:12:16;;;;;;;2.80;2.23;;;;;;;6.93;56.97;100684.81;6212488;28;20260;-69
2023/03/11 09:15:37;;;;;;;1.73;1.63;;;;;;;6.57;57.95;100686.78;6229940;28;20224;-73
2023/03/11 09:18:59;;;;;;;1.80;1.70;;;;;;;6.89;56.58;100693.22;6230097;28;20220;-71
2023/03/11 09:22:19;;;;;;;2.00;1.90;;;;;;;7.33;56.24;100693.31;6218292;28;20237;-73
2023/03/11 09:25:40;;;;;;;2.17;2.00;;;;;;;7.36;54.69;100695.75;6226653;28;20232;-74
2023/03/11 09:29:03;;;;;;;2.57;1.83;;;;;;;7.25;54.92;100701.09;6228376;28;20232;-68
2023/03/11 09:32:23;;;;;;;2.67;2.20;;;;;;;7.15;56.07;100702.78;6207519;28;22277;-67
2023/03/11 09:35:44;;;;;;;1.87;1.70;;;;;;;7.45;55.06;100708.44;6218427;28;20228;-68
2023/03/11 09:39:05;;;;;;;1.77;1.67;;;;;;;7.63;54.98;100712.38;6222059;28;20693;-68
2023/03/11 09:42:35;;;;;;;3.53;1.57;;;;;;;7.93;54.25;100704.53;6218542;28;20220;-68
2023/03/11 09:46:05;;;;;;;1.40;1.33;;;;;;;7.39;54.91;100716.09;6237245;28;20220;-67
2023/03/11 09:49:37;;;;;;;1.63;1.53;;;;;;;7.84;54.61;100715.16;6230747;28;20224;-69
2023/03/11 09:53:09;;;;;;;1.67;1.57;;;;;;;7.67;53.70;100712.97;6236802;28;20224;-67
2023/03/11 09:56:31;;;;;;;3.17;2.33;;;;;;;8.45;53.10;100711.91;6238751;28;20247;-68
2023/03/11 09:59:53;;;;;;;3.13;2.50;;;;;;;9.19;52.87;100716.34;6235363;28;20229;-68
2023/03/11 10:03:33;;;;;;;1.57;1.23;;;;;;;9.21;51.75;100724.28;6229245;28;20236;-68
2023/03/11 10:06:55;;;;;;;3.20;1.80;;;;;;;8.33;51.77;100720.09;6238763;28;20232;-68
2023/03/11 10:10:17;;;;;;;1.47;1.27;;;;;;;7.66;51.92;100730.88;6219056;28;20315;-68
2023/03/11 10:13:46;;;;;;;1.77;1.67;;;;;;;8.86;50.30;100732.66;6229460;28;20253;-69
2023/03/11 10:17:15;;;;;;;5.63;2.77;;;;;;;9.48;50.66;100735.34;6245367;28;20232;-69
2023/03/11 10:20:45;;;;;;;2.03;1.93;;;;;;;10.43;47.67;100738.47;6241207;28;20224;-68
2023/03/11 10:24:17;;;;;;;1.43;1.33;;;;;;;13.66;41.79;100726.56;6234540;28;20232;-69
2023/03/11 10:27:45;;;;;;;3.33;1.73;;;;;;;17.47;33.34;100715.75;6235201;28;20588;-68
2023/03/11 10:31:19;;;;;;;1.33;1.20;;;;;;;18.81;29.87;100714.53;6230390;28;20383;-68
2023/03/11 10:34:44;;;;;;;1.20;1.07;;;;;;;21.70;26.22;100711.47;6231931;28;20232;-68
2023/03/11 10:38:14;;;;;;;1.90;1.17;;;;;;;21.94;26.29;100710.88;6233816;28;20228;-68
2023/03/11 10:41:42;;;;;;;1.35;1.25;;;;;;;23.56;24.00;100718.56;6237787;28;20225;-68
2023/03/11 10:45:04;;;;;;;1.50;1.23;;;;;;;23.61;23.56;100713.22;6237460;28;20651;-68
2023/03/11 10:48:26;;;;;;;1.20;1.10;;;;;;;24.28;22.41;100710.44;6238102;28;20232;-68
2023/03/11 10:51:49;;;;;;;3.63;1.00;;;;;;;19.07;29.39;100723.00;6241149;28;20749;-68
2023/03/11 10:55:18;;;;;;;1.80;0.98;;;;;;;22.97;24.83;100722.53;6240726;28;20236;-68
2023/03/11 10:58:48;;;;;;;1.30;1.20;;;;;;;17.95;29.13;100732.69;6236932;28;20228;-69
2023/03/11 11:02:24;;;;;;;2.33;1.20;;;;;;;20.76;26.80;100721.66;6226825;28;20618;-68
2023/03/11 11:05:57;;;;;;;2.67;2.47;;;;;;;22.80;25.65;100728.78;6210957;28;20594;-72
2023/03/11 11:09:20;;;;;;;5.05;1.25;;;;;;;23.71;23.75;100725.44;6225657;28;21116;-69
2023/03/11 11:12:55;;;;;;;1.77;1.00;;;;;;;21.85;24.88;100734.09;6231012;28;20232;-71
2023/03/11 11:16:19;;;;;;;1.17;0.90;;;;;;;15.32;34.18;100738.28;6236651;28;20355;-71
2023/03/11 11:19:44;;;;;;;2.75;2.00;;;;;;;21.11;27.46;100726.00;6237190;28;20244;-72
2023/03/11 11:23:04;;;;;;;2.65;1.70;;;;;;;23.35;25.13;100719.78;6229984;28;20709;-67
2023/03/11 11:26:26;;;;;;;3.38;1.35;;;;;;;16.63;31.59;100724.03;6232147;28;20236;-70
2023/03/11 11:30:11;;;;;;;1.30;1.20;;;;;;;17.69;30.89;100726.81;6224963;28;20303;-68
2023/03/11 11:33:38;;;;;;;2.28;1.08;;;;;;;16.36;33.86;100721.75;6231095;28;20232;-68
2023/03/11 11:37:04;;;;;;;3.22;1.50;;;;;;;20.43;28.24;100718.81;6222325;28;20228;-66
2023/03/11 11:40:28;;;;;;;2.88;1.92;;;;;;;18.79;29.84;100732.16;6226015;28;20224;-67
2023/03/11 11:43:52;;;;;;;2.78;1.33;;;;;;;21.98;26.22;100721.22;6225010;28;20625;-68
2023/03/11 11:47:18;;;;;;;1.73;1.55;;;;;;;21.11;26.67;100717.78;6223980;28;20236;-67
2023/03/11 11:50:43;;;;;;;7.55;1.80;;;;;;;17.87;31.50;100719.97;6229986;28;20332;-69
2023/03/11 11:54:16;;;;;;;2.10;1.08;;;;;;;16.81;33.12;100712.03;6224563;28;20650;-70
2023/03/11 11:57:37;;;;;;;1.48;1.33;;;;;;;13.25;37.68;100717.25;6235186;28;20225;-69
2023/03/11 12:01:11;;;;;;;1.35;1.20;;;;;;;12.31;40.59;100723.22;6226199;28;20315;-69
2023/03/11 12:04:45;;;;;;;2.07;1.23;;;;;;;13.32;38.40;100712.94;6220624;28;20233;-71
2023/03/11 12:08:15;;;;;;;1.70;0.80;;;;;;;11.78;40.37;100717.66;6221658;28;20255;-68
2023/03/11 12:11:41;;;;;;;2.00;0.80;;;;;;;11.62;41.92;100722.81;6227355;28;20232;-69
2023/03/11 12:15:10;;;;;;;0.70;0.70;;;;;;;13.00;39.91;100723.44;6237452;28;20602;-69
2023/03/11 12:18:36;;;;;;;9.73;2.10;;;;;;;16.06;33.98;100713.56;6237373;28;20224;-68
2023/03/11 12:22:18;;;;;;;1.00;0.83;;;;;;;16.30;32.66;100708.03;6240003;28;20312;-70
2023/03/11 12:25:49;;;;;;;2.23;1.10;;;;;;;19.91;27.21;100700.19;6238572;28;20244;-68
2023/03/11 12:29:20;;;;;;;2.23;0.80;;;;;;;18.53;29.16;100699.06;6236744;28;20375;-69
2023/03/11 12:32:46;;;;;;;1.40;0.97;;;;;;;21.04;24.74;100695.00;6220994;28;20811;-73
2023/03/11 12:36:20;;;;;;;3.42;1.55;;;;;;;20.33;25.68;100692.84;6237124;28;20316;-70
2023/03/11 12:39:42;;;;;;;1.50;0.90;;;;;;;16.43;30.78;100695.56;6218417;28;20236;-68
2023/03/11 12:43:03;;;;;;;1.40;1.27;;;;;;;16.84;30.37;100696.16;6219955;28;20228;-68
2023/03/11 12:47:10;;;;;;;0.83;0.53;;;;;;;14.76;33.18;100728.22;6229263;28;20237;-68
2023/03/11 12:50:42;;;;;;;0.50;0.50;;;;;;;17.24;30.46;100693.13;6233153;28;20678;-68
2023/03/11 12:54:27;;;;;;;1.67;0.63;;;;;;;20.10;26.47;100698.59;6221230;28;20319;-70
2023/03/11 12:57:58;;;;;;;3.17;1.00;;;;;;;13.99;37.63;100713.03;6219459;28;20316;-69
2023/03/11 13:01:42;;;;;;;0.73;0.70;;;;;;;11.06;42.55;100720.91;6223967;28;20236;-69
2023/03/11 13:05:17;;;;;;;2.00;0.97;;;;;;;10.73;44.77;100734.81;6234377;28;20239;-69
2023/03/11 13:08:46;;;;;;;0.70;0.70;;;;;;;9.10;46.77;100732.38;6214653;28;20537;-69
2023/03/11 13:12:39;;;;;;;1.03;0.70;;;;;;;12.68;40.49;100724.00;6233088;28;20220;-69
2023/03/11 13:16:39;;;;;;;1.23;0.90;;;;;;;11.54;41.79;100722.66;6235730;28;20228;-68
2023/03/11 13:19:59;;;;;;;0.80;0.80;;;;;;;11.10;43.50;100724.16;6210477;28;20228;-69
2023/03/11 13:23:23;;;;;;;1.53;0.90;;;;;;;12.48;40.66;100723.28;6222862;28;20236;-69
2023/03/11 13:26:49;;;;;;;1.00;0.80;;;;;;;12.20;40.19;100718.91;6234715;28;20240;-69
2023/03/11 13:30:19;;;;;;;1.43;1.00;;;;;;;17.64;31.91;100708.28;6212727;28;20549;-69
2023/03/11 13:33:49;;;;;;;1.83;1.43;;;;;;;16.71;31.71;100706.78;6239173;28;20271;-69
2023/03/11 13:37:21;;;;;;;0.90;0.70;;;;;;;14.38;35.38;100721.50;6224968;28;20240;-70
2023/03/11 13:40:44;;;;;;;1.37;0.90;;;;;;;13.55;38.82;100727.66;6219914;28;20228;-71
2023/03/11 13:44:14;;;;;;;0.80;0.80;;;;;;;15.17;35.64;100717.25;6201188;28;20221;-69
2023/03/11 14:04:23;;;;;;;1.30;0.87;;;;;;;12.42;39.13;100736.53;6204750;28;20588;-68
2023/03/11 14:07:46;;;;;;;1.60;1.07;;;;;;;11.88;40.78;100740.94;6196054;28;20224;-69
2023/03/11 14:11:16;;;;;;;1.43;0.90;;;;;;;9.90;44.74;100746.91;6192522;28;20247;-69
2023/03/11 14:14:48;;;;;;;2.07;1.50;;;;;;;10.32;44.91;100741.28;6186790;28;20224;-69
2023/03/11 14:18:27;;;;;;;1.03;0.70;;;;;;;11.66;43.06;100737.72;6182121;28;20236;-69
2023/03/11 14:21:51;;;;;;;1.57;0.80;;;;;;;11.14;41.98;100747.16;6190519;28;20228;-69
2023/03/11 14:25:18;;;;;;;0.57;0.57;;;;;;;11.01;42.58;100742.06;6195909;28;20672;-70
2023/03/11 14:28:43;;;;;;;1.07;0.67;;;;;;;12.10;40.49;100733.47;6189065;28;20219;-69
2023/03/11 14:32:17;;;;;;;0.93;0.93;;;;;;;13.53;36.56;100727.81;6199099;28;20323;-70
2023/03/11 14:35:38;;;;;;;1.37;0.90;;;;;;;13.14;36.54;100733.78;6170890;28;20244;-70
2023/03/11 14:38:58;;;;;;;1.10;1.00;;;;;;;12.86;36.96;100735.69;6186883;28;20236;-70
2023/03/11 14:42:25;;;;;;;0.80;0.80;;;;;;;10.93;40.65;100752.69;6192093;28;20240;-70
2023/03/11 14:45:49;;;;;;;0.47;0.47;;;;;;;10.64;42.42;100754.53;6198708;28;20232;-68
2023/03/11 14:49:15;;;;;;;0.80;0.67;;;;;;;9.50;44.56;100757.59;6208679;28;20684;-69
2023/03/11 14:52:41;;;;;;;1.20;0.70;;;;;;;9.20;46.60;100761.06;6186829;28;20224;-72
2023/03/11 14:56:06;;;;;;;2.20;0.80;;;;;;;9.05;45.50;100756.16;6217547;28;20872;-71
2023/03/11 14:59:32;;;;;;;1.70;1.37;;;;;;;9.01;46.03;100760.06;6210433;28;20680;-72
2023/03/11 15:03:02;;;;;;;1.40;1.13;;;;;;;9.06;45.06;100756.00;6191490;28;20228;-69
2023/03/11 15:06:26;;;;;;;3.73;0.93;;;;;;;8.89;46.58;100758.44;6191092;28;20239;-67
2023/03/11 15:09:47;;;;;;;1.57;0.70;;;;;;;8.67;47.34;100762.03;6180356;28;20233;-69
2023/03/11 15:13:14;;;;;;;0.90;0.90;;;;;;;9.52;46.42;100753.78;6187446;28;20223;-68
2023/03/11 15:16:37;;;;;;;0.93;0.80;;;;;;;9.58;45.75;100744.31;6211478;28;20228;-69
2023/03/11 15:19:58;;;;;;;3.47;1.30;;;;;;;8.92;47.46;100761.69;6176746;28;20227;-67
2023/03/11 15:23:21;;;;;;;0.80;0.80;;;;;;;8.74;49.19;100755.19;6184462;28;20231;-69
2023/03/11 15:26:53;;;;;;;1.23;1.10;;;;;;;8.92;49.38;100750.94;6206052;28;20659;-70
2023/03/11 15:30:20;;;;;;;1.30;1.20;;;;;;;8.81;49.89;100748.28;6183097;28;20543;-72
2023/03/11 15:33:43;;;;;;;5.47;2.57;;;;;;;8.22;51.33;100752.34;6191370;28;20232;-68
2023/03/11 15:37:19;;;;;;;3.60;1.10;;;;;;;8.09;52.47;100750.63;6187007;28;20232;-70
2023/03/11 15:40:49;;;;;;;1.70;1.60;;;;;;;8.59;50.73;100729.56;6173275;28;20240;-69
2023/03/11 15:44:29;;;;;;;2.27;2.13;;;;;;;8.52;51.84;100737.28;6197029;28;20333;-69
2023/03/11 15:47:50;;;;;;;3.43;2.37;;;;;;;8.37;52.82;100743.91;6169375;28;20232;-69
2023/03/11 15:51:19;;;;;;;6.77;2.63;;;;;;;8.61;53.02;100735.69;6196774;28;20260;-69
2023/03/11 15:54:40;;;;;;;9.17;1.83;;;;;;;8.61;52.08;100755.34;6187302;28;20227;-69
2023/03/11 15:58:05;;;;;;;2.10;1.00;;;;;;;8.21;53.07;100761.34;6178125;28;20327;-69
2023/03/11 16:01:27;;;;;;;1.17;1.10;;;;;;;7.83;55.23;100761.75;6195948;28;20232;-69
2023/03/11 16:04:48;;;;;;;1.93;1.37;;;;;;;7.33;58.78;100779.09;6190547;28;20224;-69
2023/03/11 16:08:10;;;;;;;1.80;1.50;;;;;;;8.27;57.72;100796.66;6149092;28;20240;-69
2023/03/11 16:11:32;;;;;;;1.83;1.27;;;;;;;8.35;58.42;100799.59;6161291;28;20604;-69
2023/03/11 16:14:53;;;;;;;1.77;1.10;;;;;;;7.73;60.79;100795.66;6151338;28;20270;-69
2023/03/11 16:18:13;;;;;;;0.90;0.90;;;;;;;7.97;61.61;100805.31;6116499;28;20610;-70